Avinger, Texas
Current Conditions -  °F | °C
As of 8:55 PM on Friday 21 Nov 2014 (Local Time) from KOSA Reporting Station
Overcast Overcast  
Wind Chill: 15°   Ceiling: 4100
Heat Index: 15°   Visibility: 10mi
Dew Point: 14°   Wind: 7mph
Humidity: 96%   Direction: 130°SE
Pressure: 30.18"   Gusts: NA
Location:  32.9°N, 94.56°W
Report Text: KOSA 220255Z AUTO 13006KT 10SM SCT007 OVC041 15/14 A3018 RMK AO1 T01480141
Loading
Personal Weather Stations






























Interactive Weather Map New forecast layout! Learn more

10-Day Weather Forecast

Advertisements
Track Severe Weather on mobile